Time;durP1;ratioP1;P1;durP2;ratioP2;P2;SDS_P1;SDS_P2;PMS_P1;PMS_P2;Temp;Humidity;BMP_temperature;BMP_pressure;BME280_temperature;BME280_humidity;BME280_pressure;Samples;Min_cycle;Max_cycle;Signal;HPM_P1;HPM_P2
2024/03/16 00:01:32;;;;;;;18.67;14.47;;;10.70;92.80;;;;;;5055629;28;20199;-86
2024/03/16 00:03:57;;;;;;;19.67;14.73;;;10.70;92.80;;;;;;5038040;28;20572;-85
2024/03/16 00:06:23;;;;;;;16.23;11.07;;;10.60;92.90;;;;;;5055419;28;20544;-84
2024/03/16 00:08:49;;;;;;;16.13;11.03;;;10.70;92.90;;;;;;5055640;28;20202;-85
2024/03/16 00:11:14;;;;;;;16.07;11.03;;;10.70;92.80;;;;;;5055453;28;20743;-85
2024/03/16 00:13:40;;;;;;;15.33;10.93;;;10.70;92.70;;;;;;5055476;28;20203;-85
2024/03/16 00:16:05;;;;;;;18.00;10.27;;;10.70;92.60;;;;;;5037508;28;20176;-85
2024/03/16 00:18:31;;;;;;;20.77;10.67;;;10.60;92.70;;;;;;5036704;28;20176;-85
2024/03/16 00:20:56;;;;;;;16.17;11.13;;;10.70;92.50;;;;;;5055183;28;20655;-84
2024/03/16 00:23:22;;;;;;;23.77;13.50;;;10.70;92.50;;;;;;5037311;28;20215;-85
2024/03/16 00:25:47;;;;;;;21.77;13.47;;;10.60;92.50;;;;;;5037370;28;20267;-84
2024/03/16 00:28:13;;;;;;;16.00;9.90;;;10.70;92.50;;;;;;5055223;28;20215;-85
2024/03/16 00:30:39;;;;;;;17.40;10.97;;;10.60;92.40;;;;;;5037199;28;20554;-86
2024/03/16 00:33:04;;;;;;;16.47;10.43;;;10.60;92.50;;;;;;5037248;28;20207;-86
2024/03/16 00:35:30;;;;;;;14.63;10.40;;;10.60;92.50;;;;;;5037348;28;20175;-86
2024/03/16 00:37:55;;;;;;;17.13;11.87;;;10.70;92.50;;;;;;5054835;28;20184;-85
2024/03/16 00:40:21;;;;;;;16.10;9.63;;;10.70;92.40;;;;;;5054929;28;20172;-85
2024/03/16 00:42:46;;;;;;;19.87;11.27;;;10.80;92.30;;;;;;5055046;28;20578;-85
2024/03/16 00:45:12;;;;;;;25.03;11.97;;;10.80;92.10;;;;;;5036895;28;20179;-85
2024/03/16 00:47:38;;;;;;;22.00;10.73;;;10.80;92.10;;;;;;5037106;28;20199;-85
2024/03/16 00:50:04;;;;;;;19.67;11.67;;;10.80;92.10;;;;;;5054890;28;20180;-86
2024/03/16 00:52:30;;;;;;;20.43;11.47;;;10.80;92.10;;;;;;5036965;28;20192;-85
2024/03/16 00:54:56;;;;;;;16.63;11.27;;;10.80;92.10;;;;;;5036766;28;20182;-85
2024/03/16 00:57:23;;;;;;;20.50;12.00;;;10.90;92.10;;;;;;5036826;28;20180;-85
2024/03/16 00:59:48;;;;;;;14.60;10.63;;;10.90;92.00;;;;;;5054607;28;20202;-85
2024/03/16 01:02:14;;;;;;;19.27;11.43;;;10.90;91.80;;;;;;5036625;28;20210;-86
2024/03/16 01:04:39;;;;;;;19.30;11.13;;;10.90;91.80;;;;;;5054505;28;20195;-85
2024/03/16 01:07:05;;;;;;;18.47;10.83;;;11.00;91.80;;;;;;5054721;28;20232;-85
2024/03/16 01:09:30;;;;;;;21.47;11.13;;;10.90;91.80;;;;;;5054437;28;20251;-85
2024/03/16 01:11:56;;;;;;;22.27;11.03;;;11.00;91.70;;;;;;5054149;28;20288;-85
2024/03/16 01:14:21;;;;;;;22.73;11.90;;;10.90;91.80;;;;;;5054432;28;20179;-85
2024/03/16 01:16:47;;;;;;;15.90;10.23;;;10.90;91.80;;;;;;5054253;28;20215;-85
2024/03/16 01:19:12;;;;;;;24.30;11.70;;;10.90;91.80;;;;;;5036298;28;20222;-85
2024/03/16 01:21:38;;;;;;;22.43;12.40;;;11.00;91.70;;;;;;5036161;28;20649;-85
2024/03/16 01:24:05;;;;;;;22.20;13.17;;;11.00;91.80;;;;;;5036309;28;20194;-86
2024/03/16 01:26:31;;;;;;;21.40;11.27;;;11.00;91.80;;;;;;5053958;28;20686;-85
2024/03/16 01:28:59;;;;;;;28.33;12.33;;;11.00;91.70;;;;;;5053958;28;20204;-86
2024/03/16 01:31:25;;;;;;;20.07;12.30;;;11.00;91.60;;;;;;5035965;28;20733;-85
2024/03/16 01:33:51;;;;;;;27.27;13.80;;;11.10;91.40;;;;;;5036087;28;20172;-85
2024/03/16 01:36:17;;;;;;;20.23;11.13;;;11.10;91.20;;;;;;5036129;28;20675;-86
2024/03/16 01:38:44;;;;;;;23.87;12.60;;;11.10;91.50;;;;;;5054461;28;20648;-86
2024/03/16 01:41:10;;;;;;;21.50;12.67;;;11.00;91.60;;;;;;5035733;28;20286;-85
2024/03/16 01:43:35;;;;;;;24.87;14.57;;;11.00;91.50;;;;;;5053767;28;20172;-85
2024/03/16 01:46:01;;;;;;;26.43;17.07;;;11.10;91.40;;;;;;5053844;28;20271;-85
2024/03/16 01:48:26;;;;;;;25.70;17.70;;;11.10;91.30;;;;;;5053879;28;20203;-86
2024/03/16 01:50:54;;;;;;;28.27;18.50;;;11.10;91.60;;;;;;5053758;28;20176;-85
2024/03/16 01:53:19;;;;;;;27.63;17.50;;;11.10;91.50;;;;;;5053754;28;20173;-85
2024/03/16 01:55:45;;;;;;;26.33;17.33;;;11.10;91.50;;;;;;5053478;28;20227;-85
2024/03/16 01:58:11;;;;;;;21.43;16.70;;;11.00;91.60;;;;;;5035562;28;20226;-85
2024/03/16 02:00:36;;;;;;;27.60;17.80;;;11.10;91.50;;;;;;5053742;28;20172;-85
2024/03/16 02:03:02;;;;;;;27.50;18.00;;;11.10;91.50;;;;;;5035421;28;20231;-84
2024/03/16 02:05:28;;;;;;;23.43;17.13;;;11.10;91.50;;;;;;5053299;28;20203;-85
2024/03/16 02:07:54;;;;;;;21.90;17.27;;;11.10;91.50;;;;;;5053145;28;20592;-85
2024/03/16 02:10:21;;;;;;;30.27;19.10;;;11.10;91.40;;;;;;5053507;28;20252;-86
2024/03/16 02:12:47;;;;;;;25.37;18.90;;;11.10;91.50;;;;;;5053128;28;20208;-85
2024/03/16 02:15:13;;;;;;;23.33;17.00;;;11.10;91.60;;;;;;5035486;28;20180;-85
2024/03/16 02:17:39;;;;;;;25.97;17.80;;;11.10;91.60;;;;;;5035584;28;20671;-85
2024/03/16 02:20:09;;;;;;;29.97;19.23;;;11.20;91.40;;;;;;5035180;28;20222;-85
2024/03/16 02:22:35;;;;;;;25.70;19.53;;;11.10;91.70;;;;;;5053325;28;20188;-85
2024/03/16 02:25:01;;;;;;;26.57;18.87;;;11.10;91.70;;;;;;5053328;28;20700;-85
2024/03/16 02:27:27;;;;;;;23.50;17.77;;;11.10;91.60;;;;;;5053064;28;20200;-85
2024/03/16 02:29:52;;;;;;;28.50;19.70;;;11.10;91.70;;;;;;5053125;28;20652;-85
2024/03/16 02:32:18;;;;;;;28.70;18.63;;;11.00;91.60;;;;;;5053082;28;20192;-85
2024/03/16 02:34:44;;;;;;;30.77;19.17;;;11.00;91.70;;;;;;5053358;28;20172;-85
2024/03/16 02:37:09;;;;;;;28.93;19.23;;;10.90;91.80;;;;;;5053300;28;20226;-85
2024/03/16 02:39:35;;;;;;;26.17;18.77;;;10.80;91.90;;;;;;5035450;28;20226;-85
2024/03/16 02:42:02;;;;;;;24.97;19.30;;;10.80;92.10;;;;;;5037800;28;20188;-85
2024/03/16 02:44:29;;;;;;;26.10;17.17;;;10.70;92.20;;;;;;5057283;28;20599;-85
2024/03/16 02:46:55;;;;;;;32.53;16.67;;;10.70;92.30;;;;;;5039402;28;20198;-86
2024/03/16 02:49:21;;;;;;;25.70;14.53;;;10.80;92.20;;;;;;5039344;28;20651;-86
2024/03/16 02:51:48;;;;;;;22.53;14.63;;;10.80;92.20;;;;;;5057114;28;20192;-85
2024/03/16 02:54:14;;;;;;;21.10;13.17;;;10.90;92.10;;;;;;5039352;28;20720;-86
2024/03/16 02:56:40;;;;;;;22.60;13.23;;;11.00;91.90;;;;;;5039288;28;20200;-86
2024/03/16 02:59:05;;;;;;;27.03;12.50;;;11.00;91.60;;;;;;5057183;28;20678;-84
2024/03/16 03:01:31;;;;;;;27.13;13.57;;;11.10;91.30;;;;;;5057164;28;20566;-86
2024/03/16 03:03:57;;;;;;;25.23;14.27;;;11.10;91.20;;;;;;5057150;28;20165;-85
2024/03/16 03:06:25;;;;;;;26.27;14.73;;;11.10;91.30;;;;;;5056927;28;20179;-85
2024/03/16 03:08:51;;;;;;;21.20;14.30;;;11.10;91.30;;;;;;5056684;28;20569;-86
2024/03/16 03:11:17;;;;;;;31.37;14.07;;;11.00;91.20;;;;;;5056635;28;20203;-85
2024/03/16 03:13:44;;;;;;;29.80;15.07;;;11.10;91.20;;;;;;5056642;28;20263;-85
2024/03/16 03:16:09;;;;;;;33.80;15.23;;;11.10;91.20;;;;;;5038982;28;20180;-85
2024/03/16 03:18:35;;;;;;;35.20;15.00;;;11.10;91.10;;;;;;5056695;28;20164;-85
2024/03/16 03:21:00;;;;;;;30.57;14.17;;;11.10;90.80;;;;;;5056514;28;20586;-86
2024/03/16 03:23:26;;;;;;;30.77;14.13;;;11.10;90.80;;;;;;5039792;28;20211;-86
2024/03/16 03:25:51;;;;;;;24.93;13.37;;;11.10;90.80;;;;;;5038572;28;20263;-87
2024/03/16 03:28:17;;;;;;;30.13;13.80;;;11.10;90.70;;;;;;5056668;28;20546;-86
2024/03/16 03:30:43;;;;;;;24.77;13.73;;;11.10;90.70;;;;;;5038561;28;20218;-85
2024/03/16 03:33:09;;;;;;;22.57;13.27;;;11.10;90.70;;;;;;5038417;28;20200;-85
2024/03/16 03:35:35;;;;;;;30.77;14.17;;;11.00;90.90;;;;;;5056351;28;20230;-86
2024/03/16 03:38:04;;;;;;;30.37;14.70;;;11.10;91.00;;;;;;5038324;28;20187;-85
2024/03/16 03:40:30;;;;;;;24.93;13.13;;;11.10;90.90;;;;;;5038353;28;20184;-86
2024/03/16 03:42:59;;;;;;;28.83;14.20;;;11.10;90.70;;;;;;5038164;28;20210;-85
2024/03/16 03:45:37;;;;;;;29.67;15.57;;;11.10;90.70;;;;;;5056133;28;20180;-86
2024/03/16 03:48:14;;;;;;;31.13;14.47;;;11.10;90.60;;;;;;5038106;28;20204;-86
2024/03/16 03:50:40;;;;;;;27.07;12.57;;;11.10;90.30;;;;;;5056190;28;20502;-86
2024/03/16 03:53:06;;;;;;;27.50;12.87;;;11.00;90.80;;;;;;5036760;28;20227;-87
2024/03/16 03:55:32;;;;;;;27.07;13.37;;;11.10;90.60;;;;;;5038393;28;20172;-87
2024/03/16 03:57:58;;;;;;;26.47;12.90;;;11.00;90.60;;;;;;5038053;28;20187;-86
2024/03/16 04:00:23;;;;;;;35.17;15.13;;;11.10;90.40;;;;;;5037873;28;20233;-86
2024/03/16 04:02:49;;;;;;;24.47;12.90;;;11.10;90.40;;;;;;5037928;28;20282;-86
2024/03/16 04:05:15;;;;;;;33.00;14.10;;;11.10;90.40;;;;;;5037918;28;20179;-86
2024/03/16 04:07:41;;;;;;;20.70;11.83;;;11.10;90.30;;;;;;5055576;28;20733;-86
2024/03/16 04:10:07;;;;;;;24.17;13.33;;;11.10;90.40;;;;;;5037951;28;20259;-86
2024/03/16 04:12:33;;;;;;;34.73;13.20;;;11.00;90.80;;;;;;5055436;28;20726;-85
2024/03/16 04:14:59;;;;;;;32.57;15.67;;;11.00;91.10;;;;;;5055813;28;20542;-85
2024/03/16 04:17:25;;;;;;;24.87;12.20;;;10.90;91.50;;;;;;5055741;28;20176;-85
2024/03/16 04:19:51;;;;;;;34.60;15.37;;;10.80;92.10;;;;;;5055589;28;20168;-84
2024/03/16 04:22:17;;;;;;;33.87;15.80;;;10.70;92.50;;;;;;5055583;28;20227;-85
2024/03/16 04:24:42;;;;;;;34.60;15.67;;;10.70;92.80;;;;;;5055693;28;20211;-84
2024/03/16 04:27:08;;;;;;;41.00;15.50;;;10.60;93.10;;;;;;5055234;28;20670;-85
2024/03/16 04:29:33;;;;;;;31.20;19.53;;;10.50;93.50;;;;;;5055369;28;20172;-84
2024/03/16 04:31:59;;;;;;;29.23;18.87;;;10.50;93.70;;;;;;5055181;28;20188;-84
2024/03/16 04:34:26;;;;;;;37.63;20.10;;;10.50;93.80;;;;;;5055279;28;20179;-84
2024/03/16 04:36:52;;;;;;;36.90;19.43;;;10.50;93.80;;;;;;5037365;28;20176;-84
2024/03/16 04:39:21;;;;;;;28.87;18.37;;;10.50;94.00;;;;;;5055241;28;20187;-85
2024/03/16 04:41:47;;;;;;;16.23;12.67;;;10.50;94.00;;;;;;5037264;28;20207;-86
2024/03/16 04:44:13;;;;;;;18.63;12.47;;;9.70;93.30;;;;;;5054945;28;20553;-87
2024/03/16 04:46:39;;;;;;;13.40;11.60;;;9.70;93.60;;;;;;5037685;28;20179;-86
2024/03/16 04:49:04;;;;;;;12.60;11.50;;;9.60;93.70;;;;;;5054806;28;20200;-85
2024/03/16 04:51:30;;;;;;;11.50;10.60;;;9.40;93.70;;;;;;5055086;28;20621;-86
2024/03/16 04:53:56;;;;;;;12.67;10.23;;;9.30;93.90;;;;;;5055071;28;20546;-86
2024/03/16 04:56:22;;;;;;;11.00;10.20;;;9.30;94.00;;;;;;5054858;28;20168;-85
2024/03/16 04:58:48;;;;;;;11.70;10.43;;;9.20;94.00;;;;;;5054977;28;20198;-85
2024/03/16 05:01:14;;;;;;;9.97;9.07;;;9.20;94.00;;;;;;5036687;28;20203;-85
2024/03/16 05:03:39;;;;;;;12.00;10.90;;;9.20;93.90;;;;;;5054822;28;20174;-85
2024/03/16 05:06:05;;;;;;;10.27;9.27;;;9.20;93.90;;;;;;5036939;28;20180;-85
2024/03/16 05:08:30;;;;;;;10.73;9.83;;;9.00;93.80;;;;;;5054736;28;20556;-85
2024/03/16 05:10:58;;;;;;;11.13;10.23;;;9.10;93.80;;;;;;5054419;28;20179;-85
2024/03/16 05:13:26;;;;;;;11.90;10.80;;;9.00;93.60;;;;;;5054881;28;20625;-85
2024/03/16 05:15:52;;;;;;;12.17;10.90;;;8.90;93.70;;;;;;5054360;28;20255;-86
2024/03/16 05:18:18;;;;;;;11.33;9.83;;;8.90;93.70;;;;;;5054306;28;20212;-85
2024/03/16 05:20:44;;;;;;;11.20;10.27;;;8.80;93.70;;;;;;5054372;28;20168;-85
2024/03/16 05:23:10;;;;;;;9.70;8.77;;;8.80;93.90;;;;;;5054121;28;20188;-85
2024/03/16 05:25:37;;;;;;;11.23;10.17;;;8.70;94.00;;;;;;5054191;28;20182;-85
2024/03/16 05:28:03;;;;;;;11.63;10.53;;;8.70;94.00;;;;;;5054317;28;20196;-85
2024/03/16 05:30:28;;;;;;;11.67;10.47;;;8.80;94.10;;;;;;5054072;28;20178;-85
2024/03/16 05:32:54;;;;;;;12.80;11.43;;;8.70;94.10;;;;;;5054107;28;20188;-86
2024/03/16 05:35:19;;;;;;;18.20;13.40;;;8.80;94.20;;;;;;5054008;28;20190;-85
2024/03/16 05:37:45;;;;;;;15.97;12.27;;;8.70;94.10;;;;;;5054333;28;20225;-85
2024/03/16 05:40:10;;;;;;;17.50;12.77;;;8.60;94.10;;;;;;5054342;28;20637;-85
2024/03/16 05:42:38;;;;;;;22.97;15.67;;;8.60;94.10;;;;;;5035966;28;20202;-85
2024/03/16 05:45:05;;;;;;;20.53;15.17;;;8.50;94.10;;;;;;5053918;28;20259;-85
2024/03/16 05:47:30;;;;;;;23.23;15.50;;;8.50;94.20;;;;;;5053802;28;20221;-85
2024/03/16 05:49:56;;;;;;;19.43;13.40;;;8.60;94.20;;;;;;5053654;28;20164;-85
2024/03/16 05:52:21;;;;;;;21.80;14.17;;;8.50;94.20;;;;;;5053650;28;20206;-85
2024/03/16 05:54:47;;;;;;;15.97;12.40;;;8.40;94.20;;;;;;5035707;28;20261;-85
2024/03/16 05:57:12;;;;;;;15.53;12.00;;;8.30;94.30;;;;;;5054004;28;20778;-85
2024/03/16 05:59:38;;;;;;;13.93;11.23;;;8.30;94.30;;;;;;5053464;28;20168;-86
2024/03/16 06:02:04;;;;;;;17.47;11.27;;;8.10;94.10;;;;;;5053474;28;20192;-86
2024/03/16 06:04:29;;;;;;;20.97;8.47;;;8.10;94.10;;;;;;5053787;28;20164;-85
2024/03/16 06:06:55;;;;;;;20.73;8.70;;;8.00;93.90;;;;;;5053485;28;20620;-85
2024/03/16 06:09:20;;;;;;;12.57;8.77;;;7.90;93.70;;;;;;5035636;28;20202;-86
2024/03/16 06:11:46;;;;;;;18.37;9.43;;;7.90;93.70;;;;;;5053466;28;20200;-85
2024/03/16 06:14:12;;;;;;;19.07;8.90;;;7.90;93.60;;;;;;5053334;28;20183;-85
2024/03/16 06:16:37;;;;;;;15.13;8.37;;;7.80;93.50;;;;;;5052852;28;20218;-85
2024/03/16 06:19:04;;;;;;;19.40;9.60;;;7.80;93.40;;;;;;5035569;28;20729;-85
2024/03/16 06:21:31;;;;;;;22.07;8.67;;;7.60;93.00;;;;;;5053144;28;20187;-85
2024/03/16 06:23:56;;;;;;;17.97;8.07;;;7.70;93.10;;;;;;5035348;28;20180;-85
2024/03/16 06:26:22;;;;;;;22.63;8.90;;;7.70;92.80;;;;;;5053432;28;20179;-85
2024/03/16 06:28:54;;;;;;;18.53;8.63;;;7.60;92.60;;;;;;5053375;28;20200;-85
2024/03/16 06:31:31;;;;;;;20.97;9.50;;;7.80;92.60;;;;;;5035263;28;20195;-85
2024/03/16 06:34:01;;;;;;;20.17;9.30;;;7.60;92.20;;;;;;5053651;28;20152;-85
2024/03/16 06:36:27;;;;;;;22.27;9.90;;;7.70;92.20;;;;;;5035160;28;20179;-86
2024/03/16 06:38:53;;;;;;;25.73;11.37;;;7.60;92.00;;;;;;5035235;28;20209;-85
2024/03/16 06:41:19;;;;;;;16.80;9.80;;;7.60;91.80;;;;;;5035518;28;20726;-85
2024/03/16 06:43:44;;;;;;;20.70;10.07;;;7.70;91.70;;;;;;5035803;28;20190;-85
2024/03/16 06:46:10;;;;;;;24.47;12.00;;;7.50;91.60;;;;;;5053213;28;20731;-86
2024/03/16 06:48:36;;;;;;;20.07;9.03;;;7.50;91.70;;;;;;5052991;28;20254;-85
2024/03/16 06:51:02;;;;;;;20.10;10.33;;;7.60;91.80;;;;;;5035147;28;20180;-85
2024/03/16 06:53:28;;;;;;;24.60;10.40;;;7.50;91.80;;;;;;5053046;28;20229;-86
2024/03/16 06:55:57;;;;;;;25.77;9.97;;;7.50;91.90;;;;;;5052917;28;20642;-85
2024/03/16 06:58:24;;;;;;;20.77;10.00;;;7.40;92.00;;;;;;5035091;28;20599;-85
2024/03/16 07:00:50;;;;;;;25.30;9.00;;;7.30;92.10;;;;;;5053186;28;20168;-85
2024/03/16 07:03:15;;;;;;;26.60;8.87;;;7.40;92.20;;;;;;5052981;28;20547;-85
2024/03/16 07:05:41;;;;;;;23.17;8.70;;;7.30;92.20;;;;;;5052951;28;20176;-85
2024/03/16 07:08:12;;;;;;;34.07;9.77;;;7.30;92.20;;;;;;5052824;28;20196;-86
2024/03/16 07:10:38;;;;;;;31.80;9.27;;;7.30;92.00;;;;;;5036190;28;20199;-85
2024/03/16 07:13:03;;;;;;;22.77;9.27;;;7.30;91.90;;;;;;5052695;28;20695;-86
2024/03/16 07:15:31;;;;;;;26.83;9.50;;;7.30;91.90;;;;;;5052810;28;20176;-86
2024/03/16 07:17:57;;;;;;;24.10;8.27;;;7.30;91.90;;;;;;5034885;28;20233;-85
2024/03/16 07:20:23;;;;;;;19.57;9.23;;;7.30;91.60;;;;;;5052607;28;20180;-85
2024/03/16 07:22:48;;;;;;;23.30;9.20;;;7.20;91.20;;;;;;5034883;28;20206;-86
2024/03/16 07:25:14;;;;;;;18.37;9.13;;;7.30;91.30;;;;;;5052740;28;20180;-86
2024/03/16 07:27:40;;;;;;;17.03;9.40;;;7.30;90.80;;;;;;5054421;28;20279;-85
2024/03/16 07:30:06;;;;;;;14.53;9.93;;;7.20;90.30;;;;;;5056346;28;20204;-85
2024/03/16 07:32:32;;;;;;;21.07;9.33;;;7.20;89.80;;;;;;5056061;28;20279;-85
2024/03/16 07:34:59;;;;;;;15.07;9.80;;;7.30;89.80;;;;;;5038457;28;20172;-84
2024/03/16 07:37:24;;;;;;;16.47;9.60;;;7.20;89.20;;;;;;5056385;28;20179;-85
2024/03/16 07:39:50;;;;;;;16.47;10.30;;;7.20;88.30;;;;;;5056283;28;20177;-85
2024/03/16 07:42:15;;;;;;;13.40;10.77;;;7.20;87.70;;;;;;5056210;28;20180;-86
2024/03/16 07:44:41;;;;;;;21.07;11.23;;;7.20;87.40;;;;;;5038199;28;20172;-86
2024/03/16 07:47:06;;;;;;;12.13;9.30;;;7.30;87.20;;;;;;5056020;28;20200;-86
2024/03/16 07:49:32;;;;;;;18.07;10.10;;;7.30;87.30;;;;;;5056394;28;20271;-85
2024/03/16 07:51:57;;;;;;;13.60;11.43;;;7.30;87.20;;;;;;5038201;28;20200;-85
2024/03/16 07:54:23;;;;;;;18.17;11.67;;;7.20;86.00;;;;;;5055883;28;20191;-85
2024/03/16 07:56:49;;;;;;;15.37;11.80;;;7.30;86.00;;;;;;5038018;28;20181;-86
2024/03/16 07:59:14;;;;;;;15.50;11.67;;;7.30;86.20;;;;;;5056202;28;20659;-86
2024/03/16 08:01:40;;;;;;;21.67;12.97;;;7.30;86.50;;;;;;5037932;28;20192;-85
2024/03/16 08:04:05;;;;;;;13.83;12.30;;;7.30;86.10;;;;;;5055866;28;20175;-86
2024/03/16 08:06:31;;;;;;;16.40;12.57;;;7.30;86.40;;;;;;5038199;28;20170;-85
2024/03/16 08:08:57;;;;;;;20.17;18.13;;;7.30;86.60;;;;;;5055585;28;20199;-85
2024/03/16 08:11:22;;;;;;;19.83;17.73;;;7.30;86.40;;;;;;5055590;28;20208;-85
2024/03/16 08:13:49;;;;;;;23.43;17.30;;;7.30;86.70;;;;;;5037949;28;20194;-86
2024/03/16 08:16:15;;;;;;;24.97;16.53;;;7.30;86.90;;;;;;5055714;28;20171;-85
2024/03/16 08:18:40;;;;;;;23.03;17.53;;;7.20;86.80;;;;;;5055717;28;20550;-86
2024/03/16 08:21:07;;;;;;;17.67;16.07;;;7.20;86.80;;;;;;5037756;28;20543;-87
2024/03/16 08:23:32;;;;;;;19.23;16.23;;;7.30;87.00;;;;;;5037787;28;20183;-86
2024/03/16 08:25:58;;;;;;;24.33;16.43;;;7.20;86.80;;;;;;5037546;28;20603;-87
2024/03/16 08:28:23;;;;;;;22.87;17.23;;;7.30;87.10;;;;;;5038235;28;20698;-86
2024/03/16 08:30:49;;;;;;;20.80;16.43;;;7.30;87.00;;;;;;5037723;28;20180;-86
2024/03/16 08:33:14;;;;;;;19.10;17.20;;;7.30;87.10;;;;;;5055085;28;20222;-86
2024/03/16 08:35:40;;;;;;;20.53;17.53;;;7.30;86.70;;;;;;5037290;28;20234;-86
2024/03/16 08:38:05;;;;;;;24.33;19.43;;;7.30;86.10;;;;;;5055154;28;20719;-85
2024/03/16 08:40:31;;;;;;;21.80;19.90;;;7.40;85.40;;;;;;5054464;28;20176;-85
2024/03/16 08:42:57;;;;;;;20.07;18.03;;;7.40;84.50;;;;;;5055176;28;20617;-86
2024/03/16 08:45:23;;;;;;;20.33;18.03;;;7.50;85.10;;;;;;5055341;28;20513;-86
2024/03/16 08:47:49;;;;;;;21.97;19.87;;;7.50;84.50;;;;;;5055071;28;20192;-86
2024/03/16 08:50:14;;;;;;;21.07;19.10;;;7.70;84.80;;;;;;5054926;28;20539;-86
2024/03/16 08:52:40;;;;;;;23.13;19.77;;;7.60;84.40;;;;;;5054755;28;20188;-86
2024/03/16 08:55:06;;;;;;;23.30;20.90;;;7.70;84.40;;;;;;5036943;28;20172;-86
2024/03/16 08:57:31;;;;;;;21.53;19.83;;;7.60;83.10;;;;;;5036778;28;20689;-86
2024/03/16 08:59:57;;;;;;;22.10;20.00;;;7.60;82.80;;;;;;5037066;28;20172;-86
2024/03/16 09:02:24;;;;;;;25.03;22.63;;;7.70;84.00;;;;;;5036803;28;20286;-86
2024/03/16 09:04:55;;;;;;;19.93;17.93;;;7.70;82.80;;;;;;5054884;28;20168;-86
2024/03/16 09:07:21;;;;;;;22.67;20.50;;;7.80;83.70;;;;;;5036864;28;20573;-86
2024/03/16 09:09:47;;;;;;;24.80;22.57;;;7.90;83.50;;;;;;5054626;28;20168;-86
2024/03/16 09:12:13;;;;;;;22.40;20.43;;;7.80;83.40;;;;;;5054256;28;20570;-86
2024/03/16 09:14:38;;;;;;;22.83;20.53;;;7.90;84.00;;;;;;5054381;28;20160;-85
2024/03/16 09:17:05;;;;;;;21.10;18.90;;;7.90;84.20;;;;;;5054515;28;20180;-86
2024/03/16 09:19:32;;;;;;;22.57;20.03;;;7.80;84.30;;;;;;5054837;28;20165;-86
2024/03/16 09:21:57;;;;;;;21.50;19.27;;;7.80;84.50;;;;;;5054463;28;20199;-86
2024/03/16 09:24:23;;;;;;;21.33;19.63;;;7.70;84.70;;;;;;5054321;28;20259;-86
2024/03/16 09:26:49;;;;;;;22.60;20.23;;;7.50;85.00;;;;;;5054252;28;20268;-85
2024/03/16 09:29:15;;;;;;;21.70;19.27;;;7.30;86.30;;;;;;5054079;28;20196;-85
2024/03/16 09:31:41;;;;;;;19.97;18.03;;;7.20;86.90;;;;;;5053982;28;20192;-85
2024/03/16 09:34:07;;;;;;;18.57;12.63;;;7.20;87.10;;;;;;5054154;28;20247;-84
2024/03/16 09:36:33;;;;;;;13.13;11.20;;;7.20;87.00;;;;;;5054059;28;20175;-85
2024/03/16 09:38:58;;;;;;;11.90;10.43;;;7.30;87.20;;;;;;5053888;28;20176;-85
2024/03/16 09:41:24;;;;;;;17.17;10.27;;;7.40;87.30;;;;;;5053804;28;20203;-85
2024/03/16 09:43:52;;;;;;;18.93;11.23;;;7.60;87.70;;;;;;5054250;28;20293;-86
2024/03/16 09:46:18;;;;;;;14.27;10.17;;;7.60;87.30;;;;;;5053772;28;20172;-85
2024/03/16 09:48:44;;;;;;;14.40;10.53;;;7.80;87.10;;;;;;5036033;28;20211;-85
2024/03/16 09:51:17;;;;;;;14.53;10.03;;;7.80;86.80;;;;;;5053128;28;20695;-84
2024/03/16 09:53:43;;;;;;;16.10;13.57;;;7.70;85.50;;;;;;5036288;28;20171;-85
2024/03/16 09:56:11;;;;;;;15.80;13.13;;;7.70;84.50;;;;;;5054114;28;20247;-87
2024/03/16 09:58:37;;;;;;;16.00;13.37;;;7.70;83.20;;;;;;5054182;28;20176;-86
2024/03/16 10:01:04;;;;;;;19.07;14.17;;;7.70;83.20;;;;;;5035736;28;20656;-85
2024/03/16 10:03:31;;;;;;;18.20;13.33;;;7.80;82.80;;;;;;5036241;28;20176;-86
2024/03/16 10:06:04;;;;;;;15.90;13.70;;;8.20;83.40;;;;;;5053756;28;20179;-86
2024/03/16 10:08:33;;;;;;;16.30;14.57;;;8.50;82.90;;;;;;5053719;28;20188;-86
2024/03/16 10:11:10;;;;;;;18.93;15.43;;;8.80;81.50;;;;;;5053298;28;20173;-85
2024/03/16 10:13:37;;;;;;;24.27;14.93;;;8.80;78.90;;;;;;5053630;28;20160;-85
2024/03/16 10:16:06;;;;;;;16.40;14.77;;;9.00;78.60;;;;;;5035715;28;20585;-85
2024/03/16 10:18:34;;;;;;;18.13;15.23;;;9.30;78.00;;;;;;5035994;28;20203;-86
2024/03/16 10:21:00;;;;;;;17.93;16.30;;;9.00;77.60;;;;;;5054542;28;20203;-85
2024/03/16 10:23:26;;;;;;;21.53;15.63;;;9.10;79.60;;;;;;5035644;28;20651;-85
2024/03/16 10:25:56;;;;;;;19.17;14.87;;;8.90;77.70;;;;;;5053523;28;20172;-87
2024/03/16 10:28:21;;;;;;;18.13;15.40;;;8.70;77.90;;;;;;5053342;28;20200;-85
2024/03/16 10:30:48;;;;;;;19.90;15.93;;;8.80;79.10;;;;;;5053127;28;20628;-87
2024/03/16 10:33:16;;;;;;;17.70;15.50;;;8.80;77.40;;;;;;5035236;28;20176;-87
2024/03/16 10:35:41;;;;;;;17.50;15.67;;;8.80;78.50;;;;;;5052955;28;20245;-85
2024/03/16 10:38:13;;;;;;;23.80;16.13;;;8.90;78.80;;;;;;5035453;28;20547;-85
2024/03/16 10:40:40;;;;;;;18.30;15.57;;;9.00;79.20;;;;;;5035298;28;20176;-85
2024/03/16 10:43:15;;;;;;;18.30;16.33;;;9.00;78.80;;;;;;5052960;28;20204;-87
2024/03/16 10:45:47;;;;;;;20.53;15.23;;;9.20;78.90;;;;;;5035117;28;20178;-86
2024/03/16 10:48:18;;;;;;;24.63;18.67;;;9.20;79.10;;;;;;5052832;28;20192;-86
2024/03/16 10:50:46;;;;;;;18.13;15.10;;;9.10;77.20;;;;;;5052948;28;20515;-86
2024/03/16 10:53:13;;;;;;;20.80;16.30;;;9.10;78.40;;;;;;5052926;28;20188;-85
2024/03/16 10:55:40;;;;;;;17.60;15.80;;;8.90;77.70;;;;;;5035006;28;20172;-85
2024/03/16 10:58:28;;;;;;;16.97;15.50;;;9.00;78.20;;;;;;5034963;28;20184;-86
2024/03/16 11:01:03;;;;;;;17.93;14.90;;;8.80;77.60;;;;;;5053087;28;20608;-85
2024/03/16 11:03:33;;;;;;;18.70;15.53;;;8.80;78.60;;;;;;5055956;28;20175;-85
2024/03/16 11:06:09;;;;;;;21.57;15.73;;;8.80;78.20;;;;;;5038769;28;20180;-85
2024/03/16 11:08:44;;;;;;;18.07;16.17;;;8.90;78.30;;;;;;5056641;28;20671;-89
2024/03/16 11:11:15;;;;;;;18.33;16.37;;;9.30;77.00;;;;;;5038587;28;20211;-85
2024/03/16 11:14:04;;;;;;;19.53;17.47;;;9.00;75.20;;;;;;5038943;28;20233;-85
2024/03/16 11:16:34;;;;;;;20.67;16.80;;;9.10;76.90;;;;;;5056532;28;20164;-86
2024/03/16 11:19:00;;;;;;;28.60;25.57;;;9.40;77.60;;;;;;5038774;28;20175;-86
2024/03/16 11:21:27;;;;;;;25.30;22.80;;;9.00;75.50;;;;;;5038833;28;20204;-86
2024/03/16 11:23:54;;;;;;;33.40;25.80;;;9.40;77.10;;;;;;5056487;28;20176;-86
2024/03/16 11:26:30;;;;;;;27.50;24.37;;;9.30;75.40;;;;;;5056520;28;20715;-86
2024/03/16 11:29:09;;;;;;;25.80;23.33;;;9.20;76.00;;;;;;5038517;28;20207;-86
2024/03/16 11:31:39;;;;;;;29.30;23.57;;;9.70;76.80;;;;;;5056191;28;20253;-86
2024/03/16 11:34:11;;;;;;;28.10;25.43;;;10.00;75.20;;;;;;5056221;28;20180;-86
2024/03/16 11:36:41;;;;;;;29.40;26.50;;;10.00;74.00;;;;;;5056072;28;20234;-85
2024/03/16 11:39:14;;;;;;;29.20;26.17;;;10.10;73.70;;;;;;5038286;28;20172;-86
2024/03/16 11:41:44;;;;;;;31.47;28.27;;;10.10;75.00;;;;;;5055961;28;20329;-86
2024/03/16 11:44:15;;;;;;;28.13;21.37;;;9.80;73.40;;;;;;5038211;28;20671;-87
2024/03/16 11:46:45;;;;;;;25.50;21.47;;;9.30;73.00;;;;;;5056180;28;20175;-86
2024/03/16 11:49:12;;;;;;;29.30;23.20;;;9.30;73.80;;;;;;5056000;28;20286;-85
2024/03/16 11:51:38;;;;;;;31.50;21.37;;;9.20;72.10;;;;;;5055949;28;20249;-87
2024/03/16 11:54:04;;;;;;;25.50;22.83;;;9.50;73.20;;;;;;5056149;28;20690;-87
2024/03/16 11:56:33;;;;;;;34.50;22.20;;;9.70;72.60;;;;;;5038095;28;20176;-86
2024/03/16 11:59:01;;;;;;;27.70;23.90;;;9.50;72.40;;;;;;5055963;28;20199;-86
2024/03/16 12:01:27;;;;;;;28.53;23.43;;;9.80;69.80;;;;;;5038036;28;20235;-86
2024/03/16 12:03:53;;;;;;;33.20;27.80;;;9.90;70.20;;;;;;5055731;28;20176;-87
2024/03/16 12:06:20;;;;;;;36.90;32.90;;;10.10;70.10;;;;;;5055960;28;20207;-86
2024/03/16 12:08:46;;;;;;;41.93;33.77;;;10.00;71.60;;;;;;5037689;28;20211;-86
2024/03/16 12:11:11;;;;;;;33.57;30.07;;;10.20;72.70;;;;;;5056030;28;20204;-86
2024/03/16 12:13:38;;;;;;;34.00;30.60;;;10.60;72.60;;;;;;5037257;28;20655;-86
2024/03/16 12:16:04;;;;;;;39.97;32.20;;;10.40;71.60;;;;;;5055652;28;20176;-87
2024/03/16 12:18:31;;;;;;;37.17;33.50;;;10.00;72.40;;;;;;5055845;28;20258;-87
2024/03/16 12:20:57;;;;;;;28.73;20.10;;;9.80;74.60;;;;;;5037867;28;20180;-85
2024/03/16 12:23:24;;;;;;;28.07;19.93;;;10.00;73.60;;;;;;5055620;28;20180;-85
2024/03/16 12:25:53;;;;;;;23.43;19.40;;;9.90;72.40;;;;;;5055598;28;20263;-86
2024/03/16 12:28:18;;;;;;;29.17;21.70;;;9.70;71.30;;;;;;5055326;28;20200;-85
2024/03/16 12:30:45;;;;;;;26.03;20.90;;;9.80;70.50;;;;;;5037586;28;20245;-86